Nearby METAR Reports

 

KCFV - Coffeyville, Kansas, USA
Distance from station: ENE 93mi, 150km
Updated: Sat, 18-Nov-2017 6:52pm CST
Clear
Clear
 Wind from WNW
Wind: WNW 5 mph , 7 km/h
Temperature: 45°F , 7°C
Wind Chill: 42°F , 6°C
Dew Point: 34°F , 1°C
Humidity: 66%
Barometer: 1021.3 hPa
Clouds: Clear
Visibility: 10 miles , 16 km
2017/11/19 00:52 KCFV 190052Z AUTO 30004KT 10SM CLR 07/01 A3016 RMK AO2 SLP216 T00720006
KIDP - Independence, Kansas, USA
Distance from station: NE 86mi, 138km
Updated: Sat, 18-Nov-2017 6:55pm CST
Partly cloudy
Partly cloudy
 Wind from NW
Wind: NW 9 mph , 15 km/h
Temperature: 45°F , 7°C
Wind Chill: 40°F , 4°C
Dew Point: 30°F , -1°C
Humidity: 57%
Barometer: 1022 hPa
Clouds: Partly cloudy
Visibility: 10 miles , 16 km
Cloud details: Partly cloudy 7000 ft
2017/11/19 00:55 KIDP 190055Z AUTO 31008KT 10SM SCT070 07/M01 A3018 RMK AO2 T00751009
KIAB - Mcconnell Afb, Kansas, USA
Distance from station: N 84mi, 135km
Updated: Sat, 18-Nov-2017 6:56pm CST
Clear
Clear
 Wind from NW
Wind: NW 7 mph , 11 km/h
Temperature: 48°F , 9°C
Wind Chill: 45°F , 7°C
Dew Point: 23°F , -5°C
Humidity: 37%
Barometer: 1022.7 hPa
Clouds: Clear
Visibility: 10 miles , 16 km
2017/11/19 00:56 KIAB 190056Z AUTO 32006KT 10SM CLR 09/M05 A3020 RMK AO2 SLP232 T00871052
 
KICT - Wichita, Kansas, USA
Distance from station: NNW 88mi, 142km
Updated: Sat, 18-Nov-2017 6:53pm CST
Clear
Clear
 Wind from NW
Wind: NW 8 mph , 13 km/h
Temperature: 45°F , 7°C
Wind Chill: 41°F , 5°C
Dew Point: 27°F , -3°C
Humidity: 49%
Barometer: 1023 hPa
Clouds: Clear
Visibility: 10 miles , 16 km
2017/11/19 00:53 KICT 190053Z 32007KT 10SM CLR 07/M03 A3021 RMK AO2 SLP233 T00671033
KAAO - Wichita/Jabara, Kansas, USA
Distance from station: N 93mi, 149km
Updated: Sat, 18-Nov-2017 6:54pm CST
Clear
Clear
 Wind from NW
Wind: NW 9 mph , 15 km/h
Temperature: 45°F , 7°C
Wind Chill: 40°F , 4°C
Dew Point: 25°F , -4°C
Humidity: 46%
Barometer: 1022.7 hPa
Clouds: Clear
Visibility: 10 miles , 16 km
2017/11/19 00:54 KAAO 190054Z AUTO 31008KT 10SM CLR 07/M04 A3020 RMK AO2 SLP232 T00671039
KWLD - Winfield/Arkansa, Kansas, USA
Distance from station: N 52mi, 84km
Updated: Sat, 18-Nov-2017 6:54pm CST
Clear
Clear
 Wind from NW
Wind: NW 6 mph , 9 km/h
Temperature: 39°F , 4°C
Wind Chill: 35°F , 2°C
Dew Point: 27°F , -3°C
Humidity: 61%
Barometer: 1023.4 hPa
Clouds: Clear
Visibility: 10 miles , 16 km
2017/11/19 00:54 KWLD 190054Z AUTO 32005KT 10SM CLR 04/M03 A3022 RMK AO2 SLP235 T00441033
 
KAVK - Alva, Oklahoma, USA
Distance from station: WNW 94mi, 152km
Updated: Sat, 18-Nov-2017 6:55pm CST
Mostly cloudy
Mostly cloudy
 Wind from NW
Wind: NW 10 mph , 17 km/h
Temperature: 45°F , 7°C
Wind Chill: 40°F , 4°C
Dew Point: 19°F , -7°C
Humidity: 37%
Barometer: 1024.7 hPa
Clouds: Mostly cloudy
Visibility: 10 miles , 16 km
Cloud details: Partly cloudy 1900 ft
Mostly cloudy 2400 ft
Mostly cloudy 4200 ft
2017/11/19 00:55 KAVK 190055Z AUTO 32009KT 10SM SCT019 BKN024 BKN042 07/M07 A3026 RMK AO2
KBVO - Bartlesville, Oklahoma, USA
Distance from station: ENE 61mi, 98km
Updated: Sat, 18-Nov-2017 6:53pm CST
Clear
Clear
 Wind from calm
Wind: Calm
Temperature: 46°F , 8°C
Dew Point: 28°F , -2°C
Humidity: 50%
Barometer: 1022.7 hPa
Clouds: Clear
Visibility: 10 miles , 16 km
2017/11/19 00:53 KBVO 190053Z AUTO 00000KT 10SM CLR 08/M02 A3020 RMK AO2 SLP221 T00781017
KBKN - Blackwell, Oklahoma, USA
Distance from station: NW 29mi, 47km
Updated: Sat, 18-Nov-2017 6:55pm CST
Clear
Clear
 Wind from NW
Wind: NW 9 mph , 15 km/h
Temperature: 45°F , 7°C
Wind Chill: 40°F , 4°C
Dew Point: 27°F , -3°C
Humidity: 49%
Barometer: 1024.4 hPa
Clouds: Clear
Visibility: 10 miles , 16 km
2017/11/19 00:55 KBKN 190055Z AUTO 31008KT 10SM CLR 07/M03 A3025 RMK AO2
 
KGCM - Claremore, Oklahoma, USA
Distance from station: E 86mi, 138km
Updated: Sat, 18-Nov-2017 6:55pm CST
Clear
Clear
 Wind from NW
Wind: NW 5 mph , 7 km/h
Temperature: 46°F , 8°C
Wind Chill: 44°F , 7°C
Dew Point: 34°F , 1°C
Humidity: 62%
Barometer: 1022.4 hPa
Clouds: Clear
Visibility: 10 miles , 16 km
2017/11/19 00:55 KGCM 190055Z AUTO 32004KT 10SM CLR 08/01 A3019 RMK AO2
KCQB - Chandler, Oklahoma, USA
Distance from station: SSE 50mi, 80km
Updated: Sat, 18-Nov-2017 6:50pm CST
Clear
Clear
 Wind from WNW
Wind: WNW 7 mph , 11 km/h
Temperature: 46°F , 8°C
Wind Chill: 42°F , 6°C
Dew Point: 34°F , 1°C
Humidity: 62%
Barometer: 1023 hPa
Clouds: Clear
Visibility: 10 miles , 16 km
2017/11/19 00:50 KCQB 190050Z AUTO 29006KT 10SM CLR 08/01 A3021 RMK AO2 T00760008
KCUH - Cushing, Oklahoma, USA
Distance from station: SSE 35mi, 57km
Updated: Sat, 18-Nov-2017 6:55pm CST
Clear
Clear
 Wind from WNW
Wind: WNW 8 mph , 13 km/h
Temperature: 43°F , 6°C
Wind Chill: 38°F , 3°C
Dew Point: 34°F , 1°C
Humidity: 71%
Barometer: 1022.7 hPa
Clouds: Clear
Visibility: 10 miles , 16 km
2017/11/19 00:55 KCUH 190055Z AUTO 30007KT 10SM CLR 06/01 A3020 RMK AO2 T00570005
 
KRQO - El Reno Muni, Oklahoma, USA
Distance from station: SW 85mi, 137km
Updated: Sat, 18-Nov-2017 6:55pm CST

 Wind from NW
Wind: NW 12 mph , 19 km/h
Temperature: 43°F , 6°C
Wind Chill: 37°F , 3°C
Dew Point: 30°F , -1°C
Humidity: 61%
Barometer: 1024.7 hPa
Visibility: 10 miles , 16 km
2017/11/19 00:55 KRQO 190055Z AUTO 32010KT 10SM 06/M01 A3026 RMK AO2 T00621012
KEND - Enid/Vance Afb, Oklahoma, USA
Distance from station: W 50mi, 81km
Updated: Sat, 18-Nov-2017 6:56pm CST
Clear
Clear
 Wind from NNW
Wind: NNW 8 mph , 13 km/h
Temperature: 43°F , 6°C
Wind Chill: 38°F , 3°C
Dew Point: 25°F , -4°C
Humidity: 49%
Clouds: Clear
Visibility: 10 miles , 16 km
2017/11/19 00:56 KEND 190056Z AUTO 33007KT 10SM CLR 06/M04 M RMK AO2 SLPNO T00601036 VISNO RWY35C $
KWDG - Enid/Woodring, Oklahoma, USA
Distance from station: W 42mi, 67km
Updated: Sat, 18-Nov-2017 6:50pm CST
Clear
Clear
 Wind from NW
Wind: NW 9 mph , 15 km/h
Temperature: 43°F , 6°C
Wind Chill: 38°F , 3°C
Dew Point: 28°F , -2°C
Humidity: 57%
Barometer: 1023.7 hPa
Clouds: Clear
Visibility: 10 miles , 16 km
2017/11/19 00:50 KWDG 190050Z 32008KT 10SM SKC 06/M02 A3023
 
KGOK - Guthrie, Oklahoma, USA
Distance from station: SSW 44mi, 71km
Updated: Sat, 18-Nov-2017 6:53pm CST
Clear
Clear
 Wind from NNW
Wind: NNW 5 mph , 7 km/h
Temperature: 50°F , 10°C
Wind Chill: 48°F , 9°C
Dew Point: 28°F , -2°C
Humidity: 43%
Barometer: 1023.4 hPa
Clouds: Clear
Visibility: 10 miles , 16 km
2017/11/19 00:53 KGOK 190053Z AUTO 34004KT 10SM CLR 10/M02 A3022 RMK AO2 SLP236 T01001017
KOUN - Norman/Westheime, Oklahoma, USA
Distance from station: SSW 84mi, 136km
Updated: Sat, 18-Nov-2017 6:55pm CST
Clear
Clear
 Wind from W
Wind: W 6 mph , 9 km/h
Temperature: 48°F , 9°C
Wind Chill: 45°F , 7°C
Dew Point: 32°F , 0°C
Humidity: 54%
Barometer: 1023 hPa
Clouds: Clear
Visibility: 10 miles , 16 km
2017/11/19 00:55 KOUN 190055Z AUTO 27005KT 10SM CLR 09/00 A3021 RMK AO2 T00890002
KOKC - Oklahoma City, Oklahoma, USA
Distance from station: SSW 78mi, 126km
Updated: Sat, 18-Nov-2017 6:52pm CST
Clear
Clear
 Wind from NW
Wind: NW 7 mph , 11 km/h
Temperature: 45°F , 7°C
Wind Chill: 41°F , 5°C
Dew Point: 30°F , -1°C
Humidity: 57%
Barometer: 1023.4 hPa
Clouds: Clear
Visibility: 10 miles , 16 km
2017/11/19 00:52 KOKC 190052Z 32006KT 10SM CLR 07/M01 A3022 RMK AO2 SLP234 T00671006
 
KPWA - Okla City/Wiley, Oklahoma, USA
Distance from station: SSW 70mi, 113km
Updated: Sat, 18-Nov-2017 6:53pm CST
Clear
Clear
 Wind from NNW
Wind: NNW 7 mph , 11 km/h
Temperature: 48°F , 9°C
Wind Chill: 45°F , 7°C
Dew Point: 32°F , 0°C
Humidity: 54%
Barometer: 1023.7 hPa
Clouds: Clear
Visibility: 10 miles , 16 km
2017/11/19 00:53 KPWA 190053Z 33006KT 10SM CLR 09/00 A3023 RMK AO2 SLP235 T00890000
KRCE - Okla City/Page, Oklahoma, USA
Distance from station: SW 78mi, 126km
Updated: Mon, 19-Jun-2017 2:35am CDT
NOT Current

 
2017/06/19 07:35 KRCE 190735Z AUTO RMK AO2
KOKM - Okmulgee, Oklahoma, USA
Distance from station: SE 79mi, 127km
Updated: Sat, 18-Nov-2017 6:55pm CST
Partly cloudy
Partly cloudy
 Wind from W
Wind: W 5 mph , 7 km/h
Temperature: 46°F , 8°C
Wind Chill: 44°F , 7°C
Dew Point: 32°F , 0°C
Humidity: 57%
Barometer: 1022 hPa
Clouds: Partly cloudy
Visibility: 10 miles , 16 km
Cloud details: Partly cloudy 6500 ft
2017/11/19 00:55 KOKM 190055Z AUTO 28004KT 10SM SCT065 08/00 A3018 RMK AO2 T00790004
 
KPNC - Ponca City, Oklahoma, USA
Distance from station: N 22mi, 36km
Updated: Sat, 18-Nov-2017 6:53pm CST
Clear
Clear
 Wind from NW
Wind: NW 9 mph , 15 km/h
Temperature: 48°F , 9°C
Wind Chill: 44°F , 7°C
Dew Point: 25°F , -4°C
Humidity: 40%
Barometer: 1023 hPa
Clouds: Clear
Visibility: 10 miles , 16 km
2017/11/19 00:53 KPNC 190053Z AUTO 32008KT 10SM CLR 09/M04 A3021 RMK AO2 SLP229 T00891044 PWINO $
KSNL - Shawnee, Oklahoma, USA
Distance from station: S 74mi, 119km
Updated: Sat, 18-Nov-2017 6:55pm CST
Clear
Clear
 Wind from WNW
Wind: WNW 5 mph , 7 km/h
Temperature: 46°F , 8°C
Wind Chill: 44°F , 7°C
Dew Point: 32°F , 0°C
Humidity: 57%
Barometer: 1023 hPa
Clouds: Clear
Visibility: 10 miles , 16 km
2017/11/19 00:55 KSNL 190055Z AUTO 29004KT 10SM CLR 08/00 A3021 RMK AO2 T00800000
KSWO - Stillwater, Oklahoma, USA
Distance from station: S 17mi, 28km
Updated: Sat, 18-Nov-2017 6:53pm CST
Clear
Clear
 Wind from NW
Wind: NW 7 mph , 11 km/h
Temperature: 46°F , 8°C
Wind Chill: 42°F , 6°C
Barometer: 1023 hPa
Clouds: Clear
Visibility: 10 miles , 16 km
2017/11/19 00:53 KSWO 190053Z 32006KT 10SM CLR 08/ A3021 RMK AO2 SLP230 T0083 $
 
KTIK - Tinker Afb, Oklahoma, USA
Distance from station: SSW 72mi, 115km
Updated: Sat, 18-Nov-2017 6:56pm CST
Clear
Clear
 Wind from NW
Wind: NW 7 mph , 11 km/h
Temperature: 46°F , 8°C
Wind Chill: 42°F , 6°C
Dew Point: 32°F , 0°C
Humidity: 57%
Barometer: 1023 hPa
Clouds: Clear
Visibility: 10 miles , 16 km
2017/11/19 00:56 KTIK 190056Z AUTO 32006KT 10SM CLR 08/00 A3021 RMK AO2 SLP238 T00770002
KTUL - Tulsa, Oklahoma, USA
Distance from station: ESE 65mi, 105km
Updated: Sat, 18-Nov-2017 6:53pm CST
Clear
Clear
 Wind from NW
Wind: NW 8 mph , 13 km/h
Temperature: 48°F , 9°C
Wind Chill: 44°F , 7°C
Dew Point: 34°F , 1°C
Humidity: 58%
Barometer: 1022 hPa
Clouds: Clear
Visibility: 10 miles , 16 km
2017/11/19 00:53 KTUL 190053Z 31007KT 10SM CLR 09/01 A3018 RMK AO2 SLP220 T00890011